Ord, NE

8:13 AM CST on November 22, 2014 (GMT -0600)
Sharp | Change Station
CLOSE
Current Station
Airport
Location: Ord,
Elevation: 2070 ft
Nearby Weather Stations

Elev 2070 ft 41.62 °N, 98.95 °W | Updated 20 minutes ago

Fog
Fog
22 °F
Feels Like 22 °F
N
0
Wind Variable Wind from North

Today
High -- | Low -- °F
--% Chance of Precip.
Yesterday
High -- | Low -- °F
Precip. -- in
7:33 AM 5:10 PM
New Moon, 0% visible
Pressure 29.83 in
Visibility 0.2 miles
Clouds
Dew Point 19 °F
Humidity 89%
Rainfall 0.00 in
Snow Depth Not available.
UV Not available.
Pollen .10 out of 12
Air Quality Not available.
Flu Activity Not available.
METAR KODX 221353Z AUTO 00000KT M1/4SM FZFG VV001 M06/M07 A2976 RMK AO2 SLP100 I1000 T10561072

More Conditions Fewer Conditions

Pressure 29.83 in
Visibility 0.2 miles
Clouds
Dew Point 19 °F
Humidity 89%
Rainfall 0.00 in
Snow Depth Not available.
UV Not available.
Pollen .10 out of 12
Air Quality Not available.
Flu Activity Not available.
METAR KODX 221353Z AUTO 00000KT M1/4SM FZFG VV001 M06/M07 A2976 RMK AO2 SLP100 I1000 T10561072

More Conditions Fewer Conditions

10-Day Weather Forecast

Almanac

Astronomy

Nov. 22, 2014 Rise Set
Actual Time
Civil Twilight
Nautical Twilight
Astronomical Twilight
Moon
Length of Visible Light
Length of Day
Tomorrow will be .
, % of the Moon is Illuminated

Today's Extremes

State Highs State Lows

Community

WunderPhotos

Upload Photos

1,772,818 photos uploaded!

WunderBlogs® & News

Nearby

Air Quality

  Air Quality AQ Index Pollutant
Not available.

Snow Depth

Station Depth Elevation

Earthquake Activity

City Distance Mag. Time & Date
Minimum magnitude displayed is 2.5.

Coastal Water Temperatures

Place Temperature

Nearby Weather Stations